sensor_id;sensor_type;location;lat;lon;timestamp;P1;durP1;ratioP1;P2;durP2;ratioP2
75220;SDS011;63802;53.232;6.570;2024-02-14T00:01:00;11.20;;;5.03;;
75220;SDS011;63802;53.232;6.570;2024-02-14T00:03:26;13.00;;;5.43;;
75220;SDS011;63802;53.232;6.570;2024-02-14T00:05:51;13.13;;;5.10;;
75220;SDS011;63802;53.232;6.570;2024-02-14T00:08:17;13.13;;;5.70;;
75220;SDS011;63802;53.232;6.570;2024-02-14T00:10:43;12.00;;;5.78;;
75220;SDS011;63802;53.232;6.570;2024-02-14T00:13:10;12.82;;;6.00;;
75220;SDS011;63802;53.232;6.570;2024-02-14T00:15:35;11.40;;;5.60;;
75220;SDS011;63802;53.232;6.570;2024-02-14T00:18:01;13.32;;;5.90;;
75220;SDS011;63802;53.232;6.570;2024-02-14T00:20:27;14.00;;;6.18;;
75220;SDS011;63802;53.232;6.570;2024-02-14T00:22:53;18.27;;;5.65;;
75220;SDS011;63802;53.232;6.570;2024-02-14T00:25:18;14.02;;;6.28;;
75220;SDS011;63802;53.232;6.570;2024-02-14T00:27:43;12.02;;;6.07;;
75220;SDS011;63802;53.232;6.570;2024-02-14T00:30:09;15.13;;;6.53;;
75220;SDS011;63802;53.232;6.570;2024-02-14T00:32:35;16.40;;;7.07;;
75220;SDS011;63802;53.232;6.570;2024-02-14T00:35:00;14.85;;;6.55;;
75220;SDS011;63802;53.232;6.570;2024-02-14T00:37:26;13.82;;;6.40;;
75220;SDS011;63802;53.232;6.570;2024-02-14T00:39:52;16.45;;;7.28;;
75220;SDS011;63802;53.232;6.570;2024-02-14T00:42:18;15.25;;;7.32;;
75220;SDS011;63802;53.232;6.570;2024-02-14T00:44:44;15.27;;;7.22;;
75220;SDS011;63802;53.232;6.570;2024-02-14T00:47:09;14.68;;;7.20;;
75220;SDS011;63802;53.232;6.570;2024-02-14T00:49:38;14.15;;;7.55;;
75220;SDS011;63802;53.232;6.570;2024-02-14T00:52:04;16.73;;;7.32;;
75220;SDS011;63802;53.232;6.570;2024-02-14T00:54:29;13.82;;;7.28;;
75220;SDS011;63802;53.232;6.570;2024-02-14T00:56:55;17.15;;;7.15;;
75220;SDS011;63802;53.232;6.570;2024-02-14T00:59:20;14.63;;;7.30;;
75220;SDS011;63802;53.232;6.570;2024-02-14T01:01:46;15.65;;;7.50;;
75220;SDS011;63802;53.232;6.570;2024-02-14T01:04:11;17.70;;;7.88;;
75220;SDS011;63802;53.232;6.570;2024-02-14T01:06:37;14.35;;;7.95;;
75220;SDS011;63802;53.232;6.570;2024-02-14T01:09:03;16.05;;;7.93;;
75220;SDS011;63802;53.232;6.570;2024-02-14T01:11:28;16.05;;;7.65;;
75220;SDS011;63802;53.232;6.570;2024-02-14T01:13:53;15.50;;;7.72;;
75220;SDS011;63802;53.232;6.570;2024-02-14T01:16:19;18.67;;;7.80;;
75220;SDS011;63802;53.232;6.570;2024-02-14T01:18:44;18.25;;;7.72;;
75220;SDS011;63802;53.232;6.570;2024-02-14T01:21:10;15.75;;;7.70;;
75220;SDS011;63802;53.232;6.570;2024-02-14T01:23:35;16.02;;;8.20;;
75220;SDS011;63802;53.232;6.570;2024-02-14T01:26:00;13.32;;;7.22;;
75220;SDS011;63802;53.232;6.570;2024-02-14T01:28:27;15.80;;;8.05;;
75220;SDS011;63802;53.232;6.570;2024-02-14T01:30:53;14.35;;;7.22;;
75220;SDS011;63802;53.232;6.570;2024-02-14T01:33:18;14.63;;;7.20;;
75220;SDS011;63802;53.232;6.570;2024-02-14T01:35:44;14.95;;;7.20;;
75220;SDS011;63802;53.232;6.570;2024-02-14T01:38:09;14.43;;;7.55;;
75220;SDS011;63802;53.232;6.570;2024-02-14T01:40:37;15.02;;;7.00;;
75220;SDS011;63802;53.232;6.570;2024-02-14T01:43:02;12.65;;;6.72;;
75220;SDS011;63802;53.232;6.570;2024-02-14T01:45:28;12.30;;;6.45;;
75220;SDS011;63802;53.232;6.570;2024-02-14T01:47:53;13.00;;;6.40;;
75220;SDS011;63802;53.232;6.570;2024-02-14T01:50:20;14.63;;;6.97;;
75220;SDS011;63802;53.232;6.570;2024-02-14T01:52:53;14.70;;;7.00;;
75220;SDS011;63802;53.232;6.570;2024-02-14T01:55:19;13.02;;;6.40;;
75220;SDS011;63802;53.232;6.570;2024-02-14T01:57:46;15.13;;;6.57;;
75220;SDS011;63802;53.232;6.570;2024-02-14T02:00:13;12.38;;;6.50;;
75220;SDS011;63802;53.232;6.570;2024-02-14T02:02:41;13.10;;;6.43;;
75220;SDS011;63802;53.232;6.570;2024-02-14T02:05:07;11.40;;;5.55;;
75220;SDS011;63802;53.232;6.570;2024-02-14T02:07:32;13.13;;;6.32;;
75220;SDS011;63802;53.232;6.570;2024-02-14T02:09:58;12.98;;;5.65;;
75220;SDS011;63802;53.232;6.570;2024-02-14T02:12:24;12.57;;;6.28;;
75220;SDS011;63802;53.232;6.570;2024-02-14T02:14:52;13.18;;;6.18;;
75220;SDS011;63802;53.232;6.570;2024-02-14T02:17:17;11.32;;;5.53;;
75220;SDS011;63802;53.232;6.570;2024-02-14T02:19:43;13.63;;;5.63;;
75220;SDS011;63802;53.232;6.570;2024-02-14T02:22:08;14.27;;;5.43;;
75220;SDS011;63802;53.232;6.570;2024-02-14T02:24:34;11.65;;;5.72;;
75220;SDS011;63802;53.232;6.570;2024-02-14T02:27:01;11.48;;;5.45;;
75220;SDS011;63802;53.232;6.570;2024-02-14T02:29:26;12.15;;;5.88;;
75220;SDS011;63802;53.232;6.570;2024-02-14T02:31:52;10.98;;;5.68;;
75220;SDS011;63802;53.232;6.570;2024-02-14T02:34:17;14.80;;;5.95;;
75220;SDS011;63802;53.232;6.570;2024-02-14T02:36:43;11.65;;;5.85;;
75220;SDS011;63802;53.232;6.570;2024-02-14T02:39:08;12.07;;;5.63;;
75220;SDS011;63802;53.232;6.570;2024-02-14T02:41:34;10.18;;;4.68;;
75220;SDS011;63802;53.232;6.570;2024-02-14T02:44:00;9.70;;;4.82;;
75220;SDS011;63802;53.232;6.570;2024-02-14T02:46:26;9.85;;;5.07;;
75220;SDS011;63802;53.232;6.570;2024-02-14T02:48:52;11.57;;;5.20;;
75220;SDS011;63802;53.232;6.570;2024-02-14T02:51:20;10.25;;;5.15;;
75220;SDS011;63802;53.232;6.570;2024-02-14T02:53:45;8.68;;;4.78;;
75220;SDS011;63802;53.232;6.570;2024-02-14T02:56:11;12.55;;;5.60;;
75220;SDS011;63802;53.232;6.570;2024-02-14T02:58:37;10.15;;;5.55;;
75220;SDS011;63802;53.232;6.570;2024-02-14T03:01:07;10.65;;;5.05;;
75220;SDS011;63802;53.232;6.570;2024-02-14T03:03:33;12.00;;;5.30;;
75220;SDS011;63802;53.232;6.570;2024-02-14T03:05:58;9.68;;;5.00;;
75220;SDS011;63802;53.232;6.570;2024-02-14T03:08:24;11.00;;;4.63;;
75220;SDS011;63802;53.232;6.570;2024-02-14T03:10:51;9.75;;;4.95;;
75220;SDS011;63802;53.232;6.570;2024-02-14T03:13:16;12.30;;;5.32;;
75220;SDS011;63802;53.232;6.570;2024-02-14T03:15:45;10.48;;;4.88;;
75220;SDS011;63802;53.232;6.570;2024-02-14T03:18:11;10.70;;;4.95;;
75220;SDS011;63802;53.232;6.570;2024-02-14T03:20:37;10.75;;;4.82;;
75220;SDS011;63802;53.232;6.570;2024-02-14T03:23:02;8.98;;;4.88;;
75220;SDS011;63802;53.232;6.570;2024-02-14T03:25:31;9.68;;;4.20;;
75220;SDS011;63802;53.232;6.570;2024-02-14T03:27:56;9.32;;;4.47;;
75220;SDS011;63802;53.232;6.570;2024-02-14T03:30:23;9.98;;;4.57;;
75220;SDS011;63802;53.232;6.570;2024-02-14T03:32:49;11.43;;;4.97;;
75220;SDS011;63802;53.232;6.570;2024-02-14T03:35:15;10.00;;;5.00;;
75220;SDS011;63802;53.232;6.570;2024-02-14T03:37:41;11.02;;;4.30;;
75220;SDS011;63802;53.232;6.570;2024-02-14T03:40:09;9.75;;;4.13;;
75220;SDS011;63802;53.232;6.570;2024-02-14T03:42:35;9.38;;;4.30;;
75220;SDS011;63802;53.232;6.570;2024-02-14T03:45:01;9.13;;;3.95;;
75220;SDS011;63802;53.232;6.570;2024-02-14T03:49:57;9.00;;;3.45;;
75220;SDS011;63802;53.232;6.570;2024-02-14T03:52:23;8.50;;;3.97;;
75220;SDS011;63802;53.232;6.570;2024-02-14T03:54:48;10.07;;;4.03;;
75220;SDS011;63802;53.232;6.570;2024-02-14T03:57:14;7.35;;;3.53;;
75220;SDS011;63802;53.232;6.570;2024-02-14T03:59:39;9.52;;;3.83;;
75220;SDS011;63802;53.232;6.570;2024-02-14T04:02:05;8.10;;;3.70;;
75220;SDS011;63802;53.232;6.570;2024-02-14T04:04:34;8.05;;;3.60;;
75220;SDS011;63802;53.232;6.570;2024-02-14T04:07:02;7.93;;;3.83;;
75220;SDS011;63802;53.232;6.570;2024-02-14T04:09:28;8.25;;;3.45;;
75220;SDS011;63802;53.232;6.570;2024-02-14T04:11:53;8.10;;;3.80;;
75220;SDS011;63802;53.232;6.570;2024-02-14T04:14:19;8.30;;;3.75;;
75220;SDS011;63802;53.232;6.570;2024-02-14T04:16:44;10.85;;;4.03;;
75220;SDS011;63802;53.232;6.570;2024-02-14T04:19:09;9.77;;;4.50;;
75220;SDS011;63802;53.232;6.570;2024-02-14T04:21:36;8.50;;;3.88;;
75220;SDS011;63802;53.232;6.570;2024-02-14T04:24:03;9.93;;;4.38;;
75220;SDS011;63802;53.232;6.570;2024-02-14T04:26:28;9.20;;;4.18;;
75220;SDS011;63802;53.232;6.570;2024-02-14T04:28:54;10.55;;;4.55;;
75220;SDS011;63802;53.232;6.570;2024-02-14T04:31:19;9.18;;;4.20;;
75220;SDS011;63802;53.232;6.570;2024-02-14T04:33:44;7.53;;;4.07;;
75220;SDS011;63802;53.232;6.570;2024-02-14T04:36:15;10.18;;;4.60;;
75220;SDS011;63802;53.232;6.570;2024-02-14T04:38:41;10.93;;;4.53;;
75220;SDS011;63802;53.232;6.570;2024-02-14T04:41:06;10.77;;;4.90;;
75220;SDS011;63802;53.232;6.570;2024-02-14T04:43:31;11.95;;;4.70;;
75220;SDS011;63802;53.232;6.570;2024-02-14T04:45:57;11.75;;;4.97;;
75220;SDS011;63802;53.232;6.570;2024-02-14T04:48:22;11.73;;;5.35;;
75220;SDS011;63802;53.232;6.570;2024-02-14T04:50:47;12.07;;;4.75;;
75220;SDS011;63802;53.232;6.570;2024-02-14T04:53:14;12.00;;;5.25;;
75220;SDS011;63802;53.232;6.570;2024-02-14T04:55:41;11.70;;;5.03;;
75220;SDS011;63802;53.232;6.570;2024-02-14T04:58:07;10.98;;;4.72;;
75220;SDS011;63802;53.232;6.570;2024-02-14T05:00:33;10.52;;;4.40;;
75220;SDS011;63802;53.232;6.570;2024-02-14T05:02:58;10.15;;;4.70;;
75220;SDS011;63802;53.232;6.570;2024-02-14T05:05:24;10.55;;;4.72;;
75220;SDS011;63802;53.232;6.570;2024-02-14T05:07:49;11.35;;;4.82;;
75220;SDS011;63802;53.232;6.570;2024-02-14T05:10:15;9.73;;;4.57;;
75220;SDS011;63802;53.232;6.570;2024-02-14T05:12:40;11.35;;;4.15;;
75220;SDS011;63802;53.232;6.570;2024-02-14T05:15:06;13.05;;;5.00;;
75220;SDS011;63802;53.232;6.570;2024-02-14T05:17:32;13.52;;;5.30;;
75220;SDS011;63802;53.232;6.570;2024-02-14T05:19:58;12.40;;;5.32;;
75220;SDS011;63802;53.232;6.570;2024-02-14T05:22:23;11.30;;;4.85;;
75220;SDS011;63802;53.232;6.570;2024-02-14T05:24:48;10.35;;;4.47;;
75220;SDS011;63802;53.232;6.570;2024-02-14T05:27:14;11.63;;;4.78;;
75220;SDS011;63802;53.232;6.570;2024-02-14T05:29:39;11.05;;;4.95;;
75220;SDS011;63802;53.232;6.570;2024-02-14T05:32:05;9.90;;;4.43;;
75220;SDS011;63802;53.232;6.570;2024-02-14T05:34:30;13.07;;;5.20;;
75220;SDS011;63802;53.232;6.570;2024-02-14T05:36:56;11.20;;;4.95;;
75220;SDS011;63802;53.232;6.570;2024-02-14T05:39:22;11.60;;;4.82;;
75220;SDS011;63802;53.232;6.570;2024-02-14T05:41:47;12.20;;;4.53;;
75220;SDS011;63802;53.232;6.570;2024-02-14T05:44:14;10.52;;;4.38;;
75220;SDS011;63802;53.232;6.570;2024-02-14T05:46:39;10.65;;;4.40;;
75220;SDS011;63802;53.232;6.570;2024-02-14T05:49:05;10.75;;;4.50;;
75220;SDS011;63802;53.232;6.570;2024-02-14T05:51:31;11.10;;;4.43;;
75220;SDS011;63802;53.232;6.570;2024-02-14T05:53:56;8.48;;;3.67;;
75220;SDS011;63802;53.232;6.570;2024-02-14T05:56:22;9.88;;;4.03;;
75220;SDS011;63802;53.232;6.570;2024-02-14T05:58:47;9.30;;;4.22;;
75220;SDS011;63802;53.232;6.570;2024-02-14T06:01:13;11.57;;;4.05;;
75220;SDS011;63802;53.232;6.570;2024-02-14T06:03:38;10.90;;;4.35;;
75220;SDS011;63802;53.232;6.570;2024-02-14T06:06:06;9.55;;;4.00;;
75220;SDS011;63802;53.232;6.570;2024-02-14T06:08:32;11.05;;;4.00;;
75220;SDS011;63802;53.232;6.570;2024-02-14T06:10:57;9.25;;;4.00;;
75220;SDS011;63802;53.232;6.570;2024-02-14T06:13:22;10.57;;;3.38;;
75220;SDS011;63802;53.232;6.570;2024-02-14T06:15:47;8.98;;;3.78;;
75220;SDS011;63802;53.232;6.570;2024-02-14T06:18:13;9.35;;;3.92;;
75220;SDS011;63802;53.232;6.570;2024-02-14T06:20:38;11.43;;;3.90;;
75220;SDS011;63802;53.232;6.570;2024-02-14T06:23:04;9.00;;;3.92;;
75220;SDS011;63802;53.232;6.570;2024-02-14T06:25:29;9.68;;;3.90;;
75220;SDS011;63802;53.232;6.570;2024-02-14T06:27:55;9.15;;;4.03;;
75220;SDS011;63802;53.232;6.570;2024-02-14T06:30:20;8.10;;;3.55;;
75220;SDS011;63802;53.232;6.570;2024-02-14T06:32:46;8.77;;;3.80;;
75220;SDS011;63802;53.232;6.570;2024-02-14T06:35:11;12.20;;;4.07;;
75220;SDS011;63802;53.232;6.570;2024-02-14T06:37:36;13.45;;;4.28;;
75220;SDS011;63802;53.232;6.570;2024-02-14T06:40:02;15.23;;;4.90;;
75220;SDS011;63802;53.232;6.570;2024-02-14T06:42:28;17.98;;;5.05;;
75220;SDS011;63802;53.232;6.570;2024-02-14T06:44:53;23.23;;;5.88;;
75220;SDS011;63802;53.232;6.570;2024-02-14T06:47:19;26.85;;;6.57;;
75220;SDS011;63802;53.232;6.570;2024-02-14T06:49:44;25.25;;;6.65;;
75220;SDS011;63802;53.232;6.570;2024-02-14T06:52:10;21.45;;;6.47;;
75220;SDS011;63802;53.232;6.570;2024-02-14T06:54:35;37.30;;;6.43;;
75220;SDS011;63802;53.232;6.570;2024-02-14T06:57:01;24.77;;;7.28;;
75220;SDS011;63802;53.232;6.570;2024-02-14T06:59:26;33.85;;;6.88;;
75220;SDS011;63802;53.232;6.570;2024-02-14T07:01:52;33.63;;;7.90;;
75220;SDS011;63802;53.232;6.570;2024-02-14T07:04:19;34.58;;;6.85;;
75220;SDS011;63802;53.232;6.570;2024-02-14T07:06:53;34.90;;;6.97;;
75220;SDS011;63802;53.232;6.570;2024-02-14T07:09:18;32.42;;;7.55;;
75220;SDS011;63802;53.232;6.570;2024-02-14T07:11:44;33.42;;;7.25;;
75220;SDS011;63802;53.232;6.570;2024-02-14T07:14:11;30.00;;;7.05;;
75220;SDS011;63802;53.232;6.570;2024-02-14T07:16:36;35.30;;;7.45;;
75220;SDS011;63802;53.232;6.570;2024-02-14T07:19:01;26.38;;;5.85;;
75220;SDS011;63802;53.232;6.570;2024-02-14T07:21:27;28.50;;;6.68;;
75220;SDS011;63802;53.232;6.570;2024-02-14T07:23:53;30.05;;;6.40;;
75220;SDS011;63802;53.232;6.570;2024-02-14T07:26:18;24.30;;;5.50;;
75220;SDS011;63802;53.232;6.570;2024-02-14T07:28:44;25.23;;;6.07;;
75220;SDS011;63802;53.232;6.570;2024-02-14T07:31:09;38.13;;;6.82;;
75220;SDS011;63802;53.232;6.570;2024-02-14T07:33:34;32.30;;;5.45;;
75220;SDS011;63802;53.232;6.570;2024-02-14T07:36:03;33.83;;;6.97;;
75220;SDS011;63802;53.232;6.570;2024-02-14T07:38:29;37.25;;;7.55;;
75220;SDS011;63802;53.232;6.570;2024-02-14T07:40:54;36.05;;;6.68;;
75220;SDS011;63802;53.232;6.570;2024-02-14T07:43:20;32.22;;;5.88;;
75220;SDS011;63802;53.232;6.570;2024-02-14T07:45:45;36.58;;;6.10;;
75220;SDS011;63802;53.232;6.570;2024-02-14T07:48:11;30.95;;;6.15;;
75220;SDS011;63802;53.232;6.570;2024-02-14T07:50:36;31.40;;;6.05;;
75220;SDS011;63802;53.232;6.570;2024-02-14T07:53:02;34.45;;;5.97;;
75220;SDS011;63802;53.232;6.570;2024-02-14T07:55:27;36.13;;;5.72;;
75220;SDS011;63802;53.232;6.570;2024-02-14T07:57:53;29.80;;;6.93;;
75220;SDS011;63802;53.232;6.570;2024-02-14T08:00:18;30.40;;;5.18;;
75220;SDS011;63802;53.232;6.570;2024-02-14T08:02:48;39.33;;;6.18;;
75220;SDS011;63802;53.232;6.570;2024-02-14T08:05:14;25.75;;;6.13;;
75220;SDS011;63802;53.232;6.570;2024-02-14T08:07:39;36.10;;;6.10;;
75220;SDS011;63802;53.232;6.570;2024-02-14T08:10:05;38.15;;;5.97;;
75220;SDS011;63802;53.232;6.570;2024-02-14T08:12:30;32.80;;;6.75;;
75220;SDS011;63802;53.232;6.570;2024-02-14T08:14:56;36.17;;;6.63;;
75220;SDS011;63802;53.232;6.570;2024-02-14T08:17:22;41.00;;;6.35;;
75220;SDS011;63802;53.232;6.570;2024-02-14T08:19:47;32.03;;;5.90;;
75220;SDS011;63802;53.232;6.570;2024-02-14T08:22:13;31.02;;;5.93;;
75220;SDS011;63802;53.232;6.570;2024-02-14T08:24:38;29.33;;;5.90;;
75220;SDS011;63802;53.232;6.570;2024-02-14T08:27:04;29.38;;;4.93;;
75220;SDS011;63802;53.232;6.570;2024-02-14T08:29:32;39.67;;;7.07;;
75220;SDS011;63802;53.232;6.570;2024-02-14T08:31:57;39.63;;;6.65;;
75220;SDS011;63802;53.232;6.570;2024-02-14T08:34:22;28.80;;;5.90;;
75220;SDS011;63802;53.232;6.570;2024-02-14T08:36:49;32.10;;;6.22;;
75220;SDS011;63802;53.232;6.570;2024-02-14T08:39:14;40.92;;;6.95;;
75220;SDS011;63802;53.232;6.570;2024-02-14T08:41:39;31.88;;;5.97;;
75220;SDS011;63802;53.232;6.570;2024-02-14T08:44:06;35.80;;;7.03;;
75220;SDS011;63802;53.232;6.570;2024-02-14T08:46:32;34.50;;;6.60;;
75220;SDS011;63802;53.232;6.570;2024-02-14T08:49:00;40.47;;;6.82;;
75220;SDS011;63802;53.232;6.570;2024-02-14T08:51:27;32.53;;;7.28;;
75220;SDS011;63802;53.232;6.570;2024-02-14T08:53:53;24.33;;;6.93;;
75220;SDS011;63802;53.232;6.570;2024-02-14T08:56:20;21.70;;;6.07;;
75220;SDS011;63802;53.232;6.570;2024-02-14T09:01:25;35.25;;;7.20;;
75220;SDS011;63802;53.232;6.570;2024-02-14T09:03:51;23.70;;;5.47;;
75220;SDS011;63802;53.232;6.570;2024-02-14T09:06:16;22.00;;;5.78;;
75220;SDS011;63802;53.232;6.570;2024-02-14T09:08:43;17.65;;;5.82;;
75220;SDS011;63802;53.232;6.570;2024-02-14T09:11:09;18.55;;;6.10;;
75220;SDS011;63802;53.232;6.570;2024-02-14T09:13:34;28.15;;;6.30;;
75220;SDS011;63802;53.232;6.570;2024-02-14T09:16:00;29.92;;;6.75;;
75220;SDS011;63802;53.232;6.570;2024-02-14T09:18:26;21.33;;;7.10;;
75220;SDS011;63802;53.232;6.570;2024-02-14T09:20:52;36.35;;;7.15;;
75220;SDS011;63802;53.232;6.570;2024-02-14T09:23:17;24.23;;;7.15;;
75220;SDS011;63802;53.232;6.570;2024-02-14T09:25:47;26.15;;;8.60;;
75220;SDS011;63802;53.232;6.570;2024-02-14T09:28:15;29.00;;;8.80;;
75220;SDS011;63802;53.232;6.570;2024-02-14T09:30:40;24.35;;;9.35;;
75220;SDS011;63802;53.232;6.570;2024-02-14T09:33:06;32.50;;;9.43;;
75220;SDS011;63802;53.232;6.570;2024-02-14T09:35:31;34.40;;;10.00;;
75220;SDS011;63802;53.232;6.570;2024-02-14T09:37:56;28.80;;;9.32;;
75220;SDS011;63802;53.232;6.570;2024-02-14T09:40:22;31.95;;;9.60;;
75220;SDS011;63802;53.232;6.570;2024-02-14T09:42:57;31.02;;;9.80;;
75220;SDS011;63802;53.232;6.570;2024-02-14T09:45:30;28.05;;;9.40;;
75220;SDS011;63802;53.232;6.570;2024-02-14T09:47:58;23.05;;;8.88;;
75220;SDS011;63802;53.232;6.570;2024-02-14T09:50:24;32.75;;;9.45;;
75220;SDS011;63802;53.232;6.570;2024-02-14T09:52:55;30.02;;;9.18;;
75220;SDS011;63802;53.232;6.570;2024-02-14T09:55:22;28.45;;;8.52;;
75220;SDS011;63802;53.232;6.570;2024-02-14T09:57:50;24.45;;;7.38;;
75220;SDS011;63802;53.232;6.570;2024-02-14T10:00:16;27.42;;;8.00;;
75220;SDS011;63802;53.232;6.570;2024-02-14T10:02:42;26.75;;;8.38;;
75220;SDS011;63802;53.232;6.570;2024-02-14T10:05:11;32.72;;;7.07;;
75220;SDS011;63802;53.232;6.570;2024-02-14T10:07:43;22.70;;;6.93;;
75220;SDS011;63802;53.232;6.570;2024-02-14T10:10:09;26.65;;;7.07;;
75220;SDS011;63802;53.232;6.570;2024-02-14T10:12:36;33.88;;;7.97;;
75220;SDS011;63802;53.232;6.570;2024-02-14T10:15:01;21.88;;;7.10;;
75220;SDS011;63802;53.232;6.570;2024-02-14T10:17:27;20.55;;;6.75;;
75220;SDS011;63802;53.232;6.570;2024-02-14T10:19:59;19.33;;;6.82;;
75220;SDS011;63802;53.232;6.570;2024-02-14T10:22:37;24.10;;;6.22;;
75220;SDS011;63802;53.232;6.570;2024-02-14T10:25:04;28.63;;;7.13;;
75220;SDS011;63802;53.232;6.570;2024-02-14T10:27:36;17.38;;;6.18;;
75220;SDS011;63802;53.232;6.570;2024-02-14T10:32:34;18.30;;;6.18;;
75220;SDS011;63802;53.232;6.570;2024-02-14T10:35:03;20.50;;;6.05;;
75220;SDS011;63802;53.232;6.570;2024-02-14T10:37:33;18.15;;;5.50;;
75220;SDS011;63802;53.232;6.570;2024-02-14T10:39:58;16.40;;;6.07;;
75220;SDS011;63802;53.232;6.570;2024-02-14T10:42:27;17.33;;;6.15;;
75220;SDS011;63802;53.232;6.570;2024-02-14T10:44:53;14.50;;;5.75;;
75220;SDS011;63802;53.232;6.570;2024-02-14T10:47:20;17.48;;;6.75;;
75220;SDS011;63802;53.232;6.570;2024-02-14T10:49:49;24.52;;;6.90;;
75220;SDS011;63802;53.232;6.570;2024-02-14T10:52:18;16.23;;;5.55;;
75220;SDS011;63802;53.232;6.570;2024-02-14T10:57:17;12.27;;;5.22;;
75220;SDS011;63802;53.232;6.570;2024-02-14T10:59:45;11.13;;;4.78;;
75220;SDS011;63802;53.232;6.570;2024-02-14T11:02:13;13.95;;;4.53;;
75220;SDS011;63802;53.232;6.570;2024-02-14T11:04:39;9.65;;;3.67;;
75220;SDS011;63802;53.232;6.570;2024-02-14T11:07:08;8.40;;;4.05;;
75220;SDS011;63802;53.232;6.570;2024-02-14T11:09:38;8.20;;;3.58;;
75220;SDS011;63802;53.232;6.570;2024-02-14T11:12:09;10.95;;;3.80;;
75220;SDS011;63802;53.232;6.570;2024-02-14T11:14:35;9.68;;;4.20;;
75220;SDS011;63802;53.232;6.570;2024-02-14T11:17:02;6.97;;;3.63;;
75220;SDS011;63802;53.232;6.570;2024-02-14T11:19:31;11.98;;;3.72;;
75220;SDS011;63802;53.232;6.570;2024-02-14T11:22:09;7.78;;;3.60;;
75220;SDS011;63802;53.232;6.570;2024-02-14T11:24:45;10.23;;;4.38;;
75220;SDS011;63802;53.232;6.570;2024-02-14T11:27:12;10.60;;;4.80;;
75220;SDS011;63802;53.232;6.570;2024-02-14T11:29:50;13.18;;;4.50;;
75220;SDS011;63802;53.232;6.570;2024-02-14T11:32:17;12.50;;;4.00;;
75220;SDS011;63802;53.232;6.570;2024-02-14T11:34:43;11.52;;;4.50;;
75220;SDS011;63802;53.232;6.570;2024-02-14T11:37:09;12.27;;;4.53;;
75220;SDS011;63802;53.232;6.570;2024-02-14T11:39:34;14.50;;;5.30;;
75220;SDS011;63802;53.232;6.570;2024-02-14T11:42:00;14.90;;;5.43;;
75220;SDS011;63802;53.232;6.570;2024-02-14T11:44:26;16.17;;;5.93;;
75220;SDS011;63802;53.232;6.570;2024-02-14T11:46:52;11.45;;;5.20;;
75220;SDS011;63802;53.232;6.570;2024-02-14T11:49:17;15.63;;;4.60;;
75220;SDS011;63802;53.232;6.570;2024-02-14T11:51:43;11.80;;;5.00;;
75220;SDS011;63802;53.232;6.570;2024-02-14T11:54:09;13.82;;;4.65;;
75220;SDS011;63802;53.232;6.570;2024-02-14T11:56:35;10.85;;;4.82;;
75220;SDS011;63802;53.232;6.570;2024-02-14T11:59:02;12.18;;;4.55;;
75220;SDS011;63802;53.232;6.570;2024-02-14T12:01:36;15.55;;;4.65;;
75220;SDS011;63802;53.232;6.570;2024-02-14T12:04:06;13.65;;;4.80;;
75220;SDS011;63802;53.232;6.570;2024-02-14T12:06:34;10.40;;;3.80;;
75220;SDS011;63802;53.232;6.570;2024-02-14T12:09:00;8.23;;;3.45;;
75220;SDS011;63802;53.232;6.570;2024-02-14T12:11:33;6.97;;;3.03;;
75220;SDS011;63802;53.232;6.570;2024-02-14T12:14:02;6.35;;;3.30;;
75220;SDS011;63802;53.232;6.570;2024-02-14T12:16:28;7.22;;;3.05;;
75220;SDS011;63802;53.232;6.570;2024-02-14T12:19:03;8.98;;;3.47;;
75220;SDS011;63802;53.232;6.570;2024-02-14T12:21:32;6.35;;;3.25;;
75220;SDS011;63802;53.232;6.570;2024-02-14T12:24:00;7.78;;;3.22;;
75220;SDS011;63802;53.232;6.570;2024-02-14T12:26:25;9.38;;;3.28;;
75220;SDS011;63802;53.232;6.570;2024-02-14T12:28:51;4.90;;;2.78;;
75220;SDS011;63802;53.232;6.570;2024-02-14T12:31:23;6.97;;;3.22;;
75220;SDS011;63802;53.232;6.570;2024-02-14T12:33:49;6.25;;;3.00;;
75220;SDS011;63802;53.232;6.570;2024-02-14T12:36:17;8.70;;;3.50;;
75220;SDS011;63802;53.232;6.570;2024-02-14T12:38:43;7.05;;;3.33;;
75220;SDS011;63802;53.232;6.570;2024-02-14T12:41:09;8.07;;;3.60;;
75220;SDS011;63802;53.232;6.570;2024-02-14T12:43:35;7.30;;;3.22;;
75220;SDS011;63802;53.232;6.570;2024-02-14T12:46:00;6.85;;;3.45;;
75220;SDS011;63802;53.232;6.570;2024-02-14T12:48:26;7.93;;;3.58;;
75220;SDS011;63802;53.232;6.570;2024-02-14T12:50:51;8.18;;;3.60;;
75220;SDS011;63802;53.232;6.570;2024-02-14T12:53:17;9.15;;;3.75;;
75220;SDS011;63802;53.232;6.570;2024-02-14T12:55:42;9.68;;;4.32;;
75220;SDS011;63802;53.232;6.570;2024-02-14T12:58:08;9.95;;;4.65;;
75220;SDS011;63802;53.232;6.570;2024-02-14T13:00:35;11.55;;;4.78;;
75220;SDS011;63802;53.232;6.570;2024-02-14T13:03:00;12.50;;;5.05;;
75220;SDS011;63802;53.232;6.570;2024-02-14T13:05:26;7.85;;;4.15;;
75220;SDS011;63802;53.232;6.570;2024-02-14T13:07:52;9.82;;;4.10;;
75220;SDS011;63802;53.232;6.570;2024-02-14T13:10:18;11.77;;;4.85;;
75220;SDS011;63802;53.232;6.570;2024-02-14T13:12:43;13.75;;;4.57;;
75220;SDS011;63802;53.232;6.570;2024-02-14T13:15:10;10.50;;;4.32;;
75220;SDS011;63802;53.232;6.570;2024-02-14T13:17:36;8.80;;;4.55;;
75220;SDS011;63802;53.232;6.570;2024-02-14T13:20:01;10.45;;;4.75;;
75220;SDS011;63802;53.232;6.570;2024-02-14T13:22:27;10.02;;;5.50;;
75220;SDS011;63802;53.232;6.570;2024-02-14T13:24:52;10.32;;;4.30;;
75220;SDS011;63802;53.232;6.570;2024-02-14T13:27:18;8.57;;;4.35;;
75220;SDS011;63802;53.232;6.570;2024-02-14T13:29:46;9.25;;;4.45;;
75220;SDS011;63802;53.232;6.570;2024-02-14T13:32:12;9.23;;;4.63;;
75220;SDS011;63802;53.232;6.570;2024-02-14T13:34:38;12.52;;;4.90;;
75220;SDS011;63802;53.232;6.570;2024-02-14T13:37:03;8.32;;;4.28;;
75220;SDS011;63802;53.232;6.570;2024-02-14T13:39:29;10.80;;;4.95;;
75220;SDS011;63802;53.232;6.570;2024-02-14T13:41:55;11.23;;;5.03;;
75220;SDS011;63802;53.232;6.570;2024-02-14T13:44:23;10.68;;;5.25;;
75220;SDS011;63802;53.232;6.570;2024-02-14T13:46:49;10.68;;;5.18;;
75220;SDS011;63802;53.232;6.570;2024-02-14T13:49:15;10.52;;;5.05;;
75220;SDS011;63802;53.232;6.570;2024-02-14T13:51:46;10.70;;;5.25;;
75220;SDS011;63802;53.232;6.570;2024-02-14T13:54:12;10.82;;;5.10;;
75220;SDS011;63802;53.232;6.570;2024-02-14T13:56:37;11.57;;;5.00;;
75220;SDS011;63802;53.232;6.570;2024-02-14T13:59:06;13.60;;;4.85;;
75220;SDS011;63802;53.232;6.570;2024-02-14T14:01:31;10.82;;;4.97;;
75220;SDS011;63802;53.232;6.570;2024-02-14T14:03:56;13.07;;;5.75;;
75220;SDS011;63802;53.232;6.570;2024-02-14T14:06:23;15.77;;;6.00;;
75220;SDS011;63802;53.232;6.570;2024-02-14T14:08:49;13.70;;;5.88;;
75220;SDS011;63802;53.232;6.570;2024-02-14T14:11:15;13.88;;;5.68;;
75220;SDS011;63802;53.232;6.570;2024-02-14T14:13:43;13.02;;;5.93;;
75220;SDS011;63802;53.232;6.570;2024-02-14T14:16:08;13.60;;;5.50;;
75220;SDS011;63802;53.232;6.570;2024-02-14T14:18:36;14.90;;;7.00;;
75220;SDS011;63802;53.232;6.570;2024-02-14T14:21:01;16.88;;;6.90;;
75220;SDS011;63802;53.232;6.570;2024-02-14T14:23:28;18.88;;;7.70;;
75220;SDS011;63802;53.232;6.570;2024-02-14T14:25:54;18.13;;;7.65;;
75220;SDS011;63802;53.232;6.570;2024-02-14T14:28:19;18.50;;;8.43;;
75220;SDS011;63802;53.232;6.570;2024-02-14T14:30:50;17.30;;;8.25;;
75220;SDS011;63802;53.232;6.570;2024-02-14T14:33:15;18.33;;;8.73;;
75220;SDS011;63802;53.232;6.570;2024-02-14T14:35:41;22.38;;;9.88;;
75220;SDS011;63802;53.232;6.570;2024-02-14T14:38:06;21.08;;;9.60;;
75220;SDS011;63802;53.232;6.570;2024-02-14T14:40:32;20.17;;;10.05;;
75220;SDS011;63802;53.232;6.570;2024-02-14T14:43:00;19.85;;;9.68;;